Time;durP1;ratioP1;P1;durP2;ratioP2;P2;SDS_P1;SDS_P2;PMS_P1;PMS_P2;Temp;Humidity;BMP_temperature;BMP_pressure;BME280_temperature;BME280_humidity;BME280_pressure;Samples;Min_cycle;Max_cycle;Signal;HPM_P1;HPM_P2
2022/03/26 00:00:24;;;;;;;14.90;7.07;;;;;;;6.85;60.27;97221.13;5075922;28;20203;-68
2022/03/26 00:02:50;;;;;;;20.80;8.90;;;;;;;6.85;60.26;97223.75;5075505;28;20671;-67
2022/03/26 00:05:17;;;;;;;14.00;5.13;;;;;;;6.96;59.82;97221.88;5077193;28;20311;-68
2022/03/26 00:07:44;;;;;;;13.37;5.77;;;;;;;7.08;59.71;97222.59;5076143;28;20204;-67
2022/03/26 00:10:11;;;;;;;15.53;6.27;;;;;;;7.41;59.19;97218.69;5076085;28;20204;-67
2022/03/26 00:12:39;;;;;;;20.47;7.13;;;;;;;7.33;58.55;97225.56;5074789;28;20207;-67
2022/03/26 00:15:07;;;;;;;29.70;6.97;;;;;;;7.46;58.73;97219.13;5076110;28;20223;-68
2022/03/26 00:17:36;;;;;;;19.77;6.67;;;;;;;7.48;58.40;97211.13;5075784;28;21019;-68
2022/03/26 00:20:03;;;;;;;23.27;7.20;;;;;;;7.32;58.78;97219.50;5075833;28;20200;-68
2022/03/26 00:22:30;;;;;;;12.93;5.40;;;;;;;7.25;58.57;97219.34;5075334;28;20211;-67
2022/03/26 00:24:56;;;;;;;13.40;5.70;;;;;;;7.16;58.36;97218.34;5076064;28;20219;-67
2022/03/26 00:27:23;;;;;;;20.00;8.10;;;;;;;7.17;58.25;97220.00;5076696;28;20207;-67
2022/03/26 00:29:49;;;;;;;18.37;5.73;;;;;;;7.09;58.36;97214.59;5079706;28;20211;-67
2022/03/26 00:32:16;;;;;;;15.30;6.10;;;;;;;6.97;58.72;97214.81;5078830;28;20211;-66
2022/03/26 00:34:44;;;;;;;16.87;5.47;;;;;;;7.05;59.49;97217.59;5079659;28;20708;-67
2022/03/26 00:37:11;;;;;;;19.73;7.00;;;;;;;6.98;59.03;97226.97;5079924;28;20288;-67
2022/03/26 00:39:39;;;;;;;18.47;6.67;;;;;;;7.04;59.16;97223.81;5079416;28;20203;-68
2022/03/26 00:42:08;;;;;;;13.23;5.50;;;;;;;7.01;59.43;97216.22;5079306;28;20294;-68
2022/03/26 00:44:35;;;;;;;19.03;6.93;;;;;;;6.87;59.52;97224.44;5078924;28;20222;-67
2022/03/26 00:47:01;;;;;;;15.33;7.23;;;;;;;6.75;59.75;97222.84;5079519;28;20192;-68
2022/03/26 00:49:27;;;;;;;11.60;5.67;;;;;;;6.82;59.32;97223.97;5079513;28;20204;-67
2022/03/26 00:51:55;;;;;;;15.90;6.87;;;;;;;7.00;59.11;97218.03;5079457;28;20253;-68
2022/03/26 00:54:22;;;;;;;20.07;7.17;;;;;;;6.72;59.33;97225.72;5078578;28;20611;-68
2022/03/26 00:56:48;;;;;;;18.13;5.63;;;;;;;6.82;60.05;97226.59;5079140;28;20723;-67
2022/03/26 00:59:14;;;;;;;16.37;6.13;;;;;;;6.94;59.36;97218.53;5078901;28;20215;-68
2022/03/26 01:01:41;;;;;;;17.90;5.33;;;;;;;6.82;59.73;97221.34;5079174;28;20710;-68
2022/03/26 01:04:08;;;;;;;25.53;7.07;;;;;;;6.93;59.57;97229.97;5078196;28;20203;-67
2022/03/26 01:06:35;;;;;;;18.90;9.00;;;;;;;6.97;59.40;97220.06;5079184;28;20278;-67
2022/03/26 01:09:03;;;;;;;18.83;8.57;;;;;;;7.09;59.33;97216.38;5078962;28;21003;-68
2022/03/26 01:11:30;;;;;;;13.23;6.43;;;;;;;6.53;60.38;97227.41;5079316;28;20200;-68
2022/03/26 01:13:56;;;;;;;25.47;7.77;;;;;;;6.62;59.86;97217.00;5078020;28;20204;-68
2022/03/26 01:16:24;;;;;;;20.90;7.20;;;;;;;6.69;60.23;97223.38;5078835;28;20345;-68
2022/03/26 01:18:51;;;;;;;18.83;6.43;;;;;;;6.53;60.65;97214.31;5079439;28;20315;-68
2022/03/26 01:21:17;;;;;;;18.20;6.23;;;;;;;6.60;60.20;97223.31;5079125;28;20649;-67
2022/03/26 01:23:46;;;;;;;17.37;6.00;;;;;;;6.46;59.83;97224.47;5078012;28;20200;-67
2022/03/26 01:26:14;;;;;;;17.50;7.70;;;;;;;6.20;61.52;97223.19;5078580;28;20230;-67
2022/03/26 01:28:41;;;;;;;21.03;7.63;;;;;;;6.24;61.65;97224.59;5079227;28;20206;-68
2022/03/26 01:31:08;;;;;;;18.27;4.97;;;;;;;6.15;61.31;97225.34;5078760;28;20203;-67
2022/03/26 01:33:34;;;;;;;23.80;6.70;;;;;;;6.04;61.92;97224.56;5077676;28;20207;-67
2022/03/26 01:36:01;;;;;;;16.20;5.80;;;;;;;6.09;62.07;97220.63;5078932;28;20220;-68
2022/03/26 01:38:27;;;;;;;18.67;7.00;;;;;;;6.17;61.70;97218.22;5078153;28;20224;-68
2022/03/26 01:40:54;;;;;;;14.43;6.37;;;;;;;6.33;61.73;97218.59;5077649;28;20222;-68
2022/03/26 01:43:22;;;;;;;17.80;6.70;;;;;;;6.63;61.01;97212.56;5077623;28;20215;-67
2022/03/26 01:45:48;;;;;;;14.20;5.87;;;;;;;6.45;61.61;97216.75;5078288;28;20235;-67
2022/03/26 01:48:14;;;;;;;13.17;6.80;;;;;;;6.53;61.20;97215.16;5078205;28;20210;-68
2022/03/26 01:50:42;;;;;;;18.70;7.00;;;;;;;6.64;61.10;97212.44;5078597;28;20203;-67
2022/03/26 01:53:08;;;;;;;12.17;5.57;;;;;;;6.75;61.13;97213.19;5077590;28;20204;-67
2022/03/26 01:55:35;;;;;;;18.30;7.80;;;;;;;6.65;60.76;97214.13;5077776;28;20231;-67
2022/03/26 01:58:02;;;;;;;19.97;7.93;;;;;;;6.48;61.22;97206.84;5078190;28;20347;-67
2022/03/26 02:00:31;;;;;;;20.43;5.77;;;;;;;6.65;61.57;97203.63;5078454;28;20199;-67
2022/03/26 02:02:58;;;;;;;24.23;7.20;;;;;;;6.59;61.37;97219.84;5077646;28;20575;-67
2022/03/26 02:05:25;;;;;;;33.13;7.50;;;;;;;6.53;61.26;97215.16;5077369;28;20227;-67
2022/03/26 02:07:51;;;;;;;19.73;6.37;;;;;;;6.70;60.97;97212.75;5077653;28;20241;-67
2022/03/26 02:10:19;;;;;;;19.03;6.57;;;;;;;6.76;61.01;97206.19;5077843;28;20204;-67
2022/03/26 02:12:47;;;;;;;28.33;5.90;;;;;;;6.54;60.65;97210.75;5077458;28;20223;-68
2022/03/26 02:15:14;;;;;;;16.73;6.67;;;;;;;6.52;61.17;97205.63;5077688;28;20247;-67
2022/03/26 02:17:43;;;;;;;15.90;8.47;;;;;;;6.62;61.20;97210.91;5077609;28;20231;-67
2022/03/26 02:20:13;;;;;;;16.73;6.63;;;;;;;6.60;61.53;97211.03;5077441;28;21007;-67
2022/03/26 02:22:40;;;;;;;22.20;7.33;;;;;;;6.47;61.48;97210.44;5076944;28;20199;-68
2022/03/26 02:25:09;;;;;;;16.50;5.73;;;;;;;6.68;61.09;97205.97;5077747;28;20727;-67
2022/03/26 02:27:36;;;;;;;15.63;6.33;;;;;;;6.54;61.39;97203.69;5077377;28;20206;-68
2022/03/26 02:30:03;;;;;;;22.83;6.43;;;;;;;6.54;61.11;97211.56;5077586;28;20207;-67
2022/03/26 02:32:30;;;;;;;24.30;6.50;;;;;;;6.38;62.18;97207.75;5077358;28;20203;-68
2022/03/26 02:34:58;;;;;;;15.40;5.77;;;;;;;6.56;61.71;97209.66;5077546;28;20230;-67
2022/03/26 02:37:25;;;;;;;30.47;6.77;;;;;;;6.65;61.75;97209.69;5077145;28;20247;-67
2022/03/26 02:39:52;;;;;;;13.10;5.93;;;;;;;6.63;61.57;97210.78;5077759;28;20208;-68
2022/03/26 02:42:18;;;;;;;14.87;6.63;;;;;;;6.72;60.71;97216.09;5076851;28;21013;-67
2022/03/26 02:44:45;;;;;;;14.53;6.20;;;;;;;6.55;61.52;97215.84;5077410;28;20220;-68
2022/03/26 02:47:12;;;;;;;25.43;8.30;;;;;;;6.71;61.24;97213.59;5077366;28;20200;-67
2022/03/26 02:49:39;;;;;;;29.67;10.30;;;;;;;6.68;60.95;97208.59;5077018;28;20204;-67
2022/03/26 02:52:06;;;;;;;13.13;5.10;;;;;;;6.92;60.58;97215.19;5076759;28;20199;-67
2022/03/26 02:54:35;;;;;;;21.00;7.23;;;;;;;7.07;60.10;97215.69;5076393;28;20330;-67
2022/03/26 02:57:02;;;;;;;21.03;5.63;;;;;;;6.88;60.33;97226.09;5077228;28;20287;-67
2022/03/26 02:59:29;;;;;;;12.97;5.40;;;;;;;6.73;60.43;97220.38;5076883;28;20204;-68
2022/03/26 03:01:55;;;;;;;15.73;6.53;;;;;;;6.76;60.41;97225.34;5073885;28;20211;-68
2022/03/26 03:04:22;;;;;;;19.07;6.37;;;;;;;6.75;60.76;97221.06;5076359;28;20224;-68
2022/03/26 03:06:49;;;;;;;12.47;6.57;;;;;;;6.72;60.86;97231.81;5077059;28;20200;-67
2022/03/26 03:09:15;;;;;;;17.20;5.90;;;;;;;6.59;61.42;97230.34;5077171;28;20203;-67
2022/03/26 03:11:43;;;;;;;14.83;6.97;;;;;;;6.88;60.78;97226.09;5077094;28;20211;-67
2022/03/26 03:14:10;;;;;;;20.70;6.00;;;;;;;6.92;60.18;97217.00;5075876;28;20199;-67
2022/03/26 03:16:38;;;;;;;15.90;4.47;;;;;;;6.95;59.96;97219.34;5076636;28;20277;-68
2022/03/26 03:19:05;;;;;;;23.40;5.93;;;;;;;7.05;59.74;97215.84;5077005;28;20224;-67
2022/03/26 03:21:31;;;;;;;15.27;6.27;;;;;;;6.97;59.07;97217.44;5076930;28;20204;-67
2022/03/26 03:23:58;;;;;;;16.93;5.77;;;;;;;6.85;59.16;97221.13;5075925;28;20200;-68
2022/03/26 03:26:24;;;;;;;12.40;5.83;;;;;;;6.68;59.66;97224.31;5076677;28;20262;-67
2022/03/26 03:28:52;;;;;;;15.20;5.93;;;;;;;6.51;60.06;97226.72;5076809;28;20199;-67
2022/03/26 03:31:19;;;;;;;26.30;7.53;;;;;;;6.22;60.89;97225.69;5076622;28;20196;-67
2022/03/26 03:33:46;;;;;;;17.90;6.17;;;;;;;5.96;60.91;97226.16;5076134;28;20204;-67
2022/03/26 03:36:13;;;;;;;13.93;6.10;;;;;;;5.75;62.03;97227.88;5076570;28;20220;-67
2022/03/26 03:38:39;;;;;;;25.83;7.00;;;;;;;5.63;63.51;97229.69;5076610;28;20708;-67
2022/03/26 03:41:06;;;;;;;13.63;5.73;;;;;;;5.55;63.43;97237.31;5076438;28;20207;-67
2022/03/26 03:43:33;;;;;;;10.43;5.07;;;;;;;5.68;63.18;97237.19;5075847;28;20226;-66
2022/03/26 03:46:01;;;;;;;24.80;6.63;;;;;;;5.85;62.97;97226.22;5076515;28;20220;-67
2022/03/26 03:48:27;;;;;;;24.63;7.00;;;;;;;5.65;63.00;97230.41;5076517;28;20199;-68
2022/03/26 03:50:54;;;;;;;14.37;6.20;;;;;;;5.74;63.00;97228.81;5077016;28;20202;-67
2022/03/26 03:53:20;;;;;;;15.43;6.13;;;;;;;5.99;62.01;97225.91;5076428;28;20214;-67
2022/03/26 03:55:47;;;;;;;16.67;5.03;;;;;;;6.09;61.67;97219.81;5076047;28;20223;-67
2022/03/26 03:58:13;;;;;;;15.60;6.37;;;;;;;6.06;61.84;97217.44;5076142;28;20224;-67
2022/03/26 04:00:40;;;;;;;12.07;4.93;;;;;;;6.04;62.13;97212.31;5077249;28;20207;-67
2022/03/26 04:03:07;;;;;;;15.27;6.17;;;;;;;6.22;61.56;97218.69;5077461;28;20569;-67
2022/03/26 04:05:35;;;;;;;7.70;4.33;;;;;;;5.90;60.30;97221.44;5079990;28;20602;-67
2022/03/26 04:08:01;;;;;;;12.27;5.03;;;;;;;5.65;61.48;97219.09;5080704;28;20550;-67
2022/03/26 04:10:28;;;;;;;11.27;4.70;;;;;;;5.28;63.21;97224.78;5080291;28;20203;-67
2022/03/26 04:12:54;;;;;;;11.93;4.70;;;;;;;5.08;64.82;97221.13;5079200;28;20207;-67
2022/03/26 04:15:21;;;;;;;19.57;5.47;;;;;;;5.25;63.85;97225.03;5080305;28;20226;-67
2022/03/26 04:17:51;;;;;;;15.37;6.43;;;;;;;5.26;62.84;97222.28;5080173;28;20219;-67
2022/03/26 04:20:19;;;;;;;13.17;4.53;;;;;;;5.16;63.69;97229.19;5079734;28;21281;-67
2022/03/26 04:22:45;;;;;;;16.03;3.70;;;;;;;4.80;65.28;97231.22;5079628;28;20203;-67
2022/03/26 04:25:12;;;;;;;15.40;5.50;;;;;;;4.81;65.82;97232.03;5079811;28;20730;-67
2022/03/26 04:27:43;;;;;;;10.87;4.97;;;;;;;5.17;65.94;97228.25;5079594;28;20262;-68
2022/03/26 04:30:11;;;;;;;10.47;5.70;;;;;;;5.13;65.32;97232.03;5080008;28;20200;-67
2022/03/26 04:32:37;;;;;;;7.70;4.93;;;;;;;4.98;64.58;97237.63;5079119;28;20734;-67
2022/03/26 04:35:04;;;;;;;13.10;5.10;;;;;;;5.09;64.66;97235.00;5079836;28;20230;-67
2022/03/26 04:37:33;;;;;;;26.60;5.10;;;;;;;5.08;64.10;97231.56;5079559;28;20200;-67
2022/03/26 04:40:00;;;;;;;13.57;5.03;;;;;;;4.89;64.57;97233.13;5080062;28;20565;-68
2022/03/26 04:42:26;;;;;;;12.13;5.33;;;;;;;4.69;65.16;97235.59;5078725;28;20203;-67
2022/03/26 04:44:53;;;;;;;11.17;5.20;;;;;;;4.69;65.57;97239.03;5079818;28;20219;-68
2022/03/26 04:47:19;;;;;;;10.00;5.77;;;;;;;4.76;64.89;97231.56;5079708;28;20200;-67
2022/03/26 04:49:46;;;;;;;10.53;3.77;;;;;;;4.70;63.73;97240.72;5079720;28;20215;-67
2022/03/26 04:52:13;;;;;;;13.97;4.53;;;;;;;4.70;63.77;97237.25;5079170;28;20277;-67
2022/03/26 04:54:42;;;;;;;9.10;3.53;;;;;;;4.74;64.78;97241.31;5079337;28;20315;-67
2022/03/26 04:57:09;;;;;;;13.57;6.67;;;;;;;4.53;64.98;97237.69;5079797;28;20239;-67
2022/03/26 04:59:36;;;;;;;15.63;5.50;;;;;;;4.51;65.50;97243.03;5078976;28;20931;-66
2022/03/26 05:02:02;;;;;;;11.77;5.93;;;;;;;4.40;65.62;97245.66;5079099;28;20195;-67
2022/03/26 05:04:29;;;;;;;7.77;4.07;;;;;;;4.39;66.58;97243.97;5078917;28;20740;-67
2022/03/26 05:06:55;;;;;;;12.97;4.70;;;;;;;4.47;66.59;97240.81;5079439;28;20196;-67
2022/03/26 05:09:22;;;;;;;18.30;6.40;;;;;;;4.47;65.16;97251.25;5079351;28;20204;-67
2022/03/26 05:11:50;;;;;;;25.67;5.83;;;;;;;4.56;65.17;97245.31;5079124;28;20582;-67
2022/03/26 05:14:16;;;;;;;11.03;4.23;;;;;;;4.35;66.40;97241.69;5078348;28;20219;-67
2022/03/26 05:16:43;;;;;;;12.83;4.67;;;;;;;4.38;66.53;97249.31;5079019;28;20206;-67
2022/03/26 05:19:10;;;;;;;12.03;5.20;;;;;;;4.38;66.21;97241.50;5078747;28;20223;-67
2022/03/26 05:21:37;;;;;;;18.60;6.13;;;;;;;4.42;66.79;97243.75;5078792;28;20207;-67
2022/03/26 05:24:05;;;;;;;26.23;5.77;;;;;;;4.53;66.36;97245.53;5078244;28;20204;-67
2022/03/26 05:26:31;;;;;;;13.70;4.80;;;;;;;4.58;66.23;97249.47;5078680;28;20204;-67
2022/03/26 05:29:00;;;;;;;10.80;5.03;;;;;;;4.70;67.22;97243.31;5078695;28;20196;-67
2022/03/26 05:31:26;;;;;;;13.90;5.87;;;;;;;4.68;65.82;97249.59;5078428;28;20615;-66
2022/03/26 05:33:53;;;;;;;9.07;4.40;;;;;;;4.76;65.85;97242.00;5078050;28;20652;-67
2022/03/26 05:36:19;;;;;;;9.83;5.03;;;;;;;4.70;64.54;97252.91;5079028;28;20210;-68
2022/03/26 05:38:46;;;;;;;14.20;3.87;;;;;;;4.74;64.45;97256.97;5078576;28;20234;-68
2022/03/26 05:41:12;;;;;;;16.53;5.10;;;;;;;4.67;64.84;97263.59;5078137;28;20200;-67
2022/03/26 05:43:39;;;;;;;9.67;4.43;;;;;;;4.92;65.17;97270.25;5077697;28;20207;-67
2022/03/26 05:46:07;;;;;;;12.43;5.30;;;;;;;5.11;64.70;97270.50;5078335;28;20220;-67
2022/03/26 05:48:33;;;;;;;12.73;3.93;;;;;;;4.64;65.53;97269.88;5078372;28;20211;-67
2022/03/26 05:51:00;;;;;;;15.70;4.93;;;;;;;4.65;65.56;97283.78;5078502;28;20265;-67
2022/03/26 05:53:26;;;;;;;14.23;4.60;;;;;;;4.78;66.00;97277.50;5077678;28;20204;-67
2022/03/26 05:55:53;;;;;;;11.57;4.70;;;;;;;4.86;66.26;97275.13;5078255;28;20226;-67
2022/03/26 05:58:20;;;;;;;14.33;4.70;;;;;;;4.90;66.01;97287.84;5077945;28;20316;-66
2022/03/26 06:00:48;;;;;;;20.17;5.67;;;;;;;4.95;66.43;97279.63;5078669;28;20245;-68
2022/03/26 06:03:17;;;;;;;15.27;5.70;;;;;;;5.34;66.49;97284.41;5077875;28;20207;-67
2022/03/26 06:05:43;;;;;;;11.03;4.50;;;;;;;5.25;66.32;97293.78;5078079;28;20231;-67
2022/03/26 06:08:10;;;;;;;15.63;6.70;;;;;;;5.33;66.33;97285.34;5078262;28;20687;-67
2022/03/26 06:10:36;;;;;;;10.20;6.83;;;;;;;5.42;66.15;97287.25;5078035;28;20204;-67
2022/03/26 06:13:03;;;;;;;11.47;7.17;;;;;;;5.51;66.29;97285.56;5077173;28;20207;-67
2022/03/26 06:15:29;;;;;;;15.00;5.90;;;;;;;5.77;65.94;97296.63;5077442;28;20232;-67
2022/03/26 06:17:55;;;;;;;16.60;6.97;;;;;;;5.72;65.89;97293.50;5077965;28;20207;-68
2022/03/26 06:20:23;;;;;;;17.93;6.67;;;;;;;6.06;65.88;97290.72;5077576;28;20219;-67
2022/03/26 06:22:50;;;;;;;10.50;3.83;;;;;;;6.14;65.59;97290.91;5077183;28;20200;-67
2022/03/26 06:25:16;;;;;;;15.70;5.67;;;;;;;6.12;65.99;97298.88;5077255;28;20227;-67
2022/03/26 06:27:43;;;;;;;27.17;6.87;;;;;;;6.26;65.87;97295.97;5077415;28;20312;-67
2022/03/26 06:30:11;;;;;;;10.77;4.93;;;;;;;6.55;64.99;97301.44;5078052;28;20196;-67
2022/03/26 06:32:38;;;;;;;19.93;5.27;;;;;;;6.61;65.05;97307.00;5075874;28;20291;-66
2022/03/26 06:35:06;;;;;;;14.17;5.63;;;;;;;6.67;65.96;97309.09;5077224;28;20226;-67
2022/03/26 06:37:33;;;;;;;9.17;5.37;;;;;;;6.95;65.71;97306.66;5077773;28;20315;-67
2022/03/26 06:40:00;;;;;;;21.50;7.23;;;;;;;6.90;64.52;97305.41;5077474;28;20228;-68
2022/03/26 06:42:26;;;;;;;25.40;7.57;;;;;;;6.99;65.30;97307.25;5075973;28;20298;-68
2022/03/26 06:44:58;;;;;;;12.77;6.57;;;;;;;7.26;64.42;97311.78;5077536;28;20448;-67
2022/03/26 06:47:25;;;;;;;23.23;7.13;;;;;;;7.35;64.84;97310.19;5077477;28;20239;-67
2022/03/26 06:49:52;;;;;;;21.43;5.63;;;;;;;7.57;62.98;97302.94;5077119;28;20690;-67
2022/03/26 06:52:18;;;;;;;13.00;5.73;;;;;;;7.56;63.32;97313.56;5076564;28;20672;-68
2022/03/26 06:54:46;;;;;;;16.23;6.00;;;;;;;7.69;61.43;97304.50;5077281;28;20227;-67
2022/03/26 06:57:12;;;;;;;12.17;4.37;;;;;;;7.80;60.74;97307.00;5076765;28;20222;-68
2022/03/26 06:59:39;;;;;;;19.17;5.90;;;;;;;7.88;61.39;97310.63;5076995;28;20224;-67
2022/03/26 07:02:05;;;;;;;18.47;6.10;;;;;;;8.08;60.92;97306.25;5077519;28;20290;-67
2022/03/26 07:04:32;;;;;;;13.50;5.90;;;;;;;8.22;60.59;97300.63;5076006;28;20219;-67
2022/03/26 07:06:58;;;;;;;21.30;7.97;;;;;;;8.21;60.92;97302.44;5076203;28;21053;-67
2022/03/26 07:09:25;;;;;;;11.57;4.70;;;;;;;8.28;61.27;97307.97;5076794;28;20227;-67
2022/03/26 07:11:53;;;;;;;17.60;4.27;;;;;;;8.75;59.89;97310.59;5077239;28;20226;-68
2022/03/26 07:14:19;;;;;;;13.37;5.60;;;;;;;8.68;59.04;97312.09;5076076;28;20223;-67
2022/03/26 07:16:45;;;;;;;26.03;7.40;;;;;;;8.75;58.57;97313.22;5076995;28;20207;-67
2022/03/26 07:19:12;;;;;;;15.63;6.73;;;;;;;8.81;56.77;97313.47;5077088;28;20582;-68
2022/03/26 07:21:39;;;;;;;22.47;6.03;;;;;;;8.91;57.04;97309.03;5076276;28;20196;-66
2022/03/26 07:24:07;;;;;;;17.97;6.13;;;;;;;9.11;58.16;97316.75;5076126;28;20315;-67
2022/03/26 07:26:33;;;;;;;21.60;6.87;;;;;;;8.93;56.93;97312.34;5077017;28;20207;-67
2022/03/26 07:29:01;;;;;;;22.57;6.47;;;;;;;9.04;58.95;97316.59;5075834;28;20203;-67
2022/03/26 07:31:27;;;;;;;13.27;5.33;;;;;;;9.22;58.51;97318.38;5076272;28;20381;-67
2022/03/26 07:33:54;;;;;;;14.13;5.83;;;;;;;9.36;56.27;97310.03;5077311;28;20206;-67
2022/03/26 07:36:20;;;;;;;17.90;6.67;;;;;;;9.64;56.86;97314.34;5077222;28;20235;-67
2022/03/26 07:38:47;;;;;;;19.73;6.07;;;;;;;9.57;55.21;97315.91;5079141;28;20223;-66
2022/03/26 07:41:13;;;;;;;20.03;6.87;;;;;;;9.70;56.88;97319.88;5080798;28;20203;-67
2022/03/26 07:43:40;;;;;;;25.60;7.50;;;;;;;9.93;56.82;97310.59;5080400;28;20227;-67
2022/03/26 07:46:07;;;;;;;22.07;7.13;;;;;;;9.86;54.23;97323.53;5079656;28;20223;-66
2022/03/26 07:48:34;;;;;;;27.30;7.87;;;;;;;9.98;53.20;97318.91;5080413;28;20676;-67
2022/03/26 07:51:00;;;;;;;20.17;7.97;;;;;;;10.24;51.87;97315.41;5080837;28;20202;-67
2022/03/26 07:53:29;;;;;;;16.90;6.50;;;;;;;10.05;52.98;97320.81;5079370;28;20214;-68
2022/03/26 07:55:56;;;;;;;26.50;6.90;;;;;;;10.36;54.31;97320.34;5080187;28;20253;-67
2022/03/26 07:58:22;;;;;;;23.80;7.83;;;;;;;10.40;52.49;97320.88;5080701;28;20200;-67
2022/03/26 08:00:49;;;;;;;21.37;6.50;;;;;;;10.29;52.82;97323.72;5080298;28;20207;-67
2022/03/26 08:03:17;;;;;;;23.20;8.53;;;;;;;10.82;52.62;97313.97;5079490;28;20214;-67
2022/03/26 08:05:44;;;;;;;24.63;7.27;;;;;;;10.72;51.62;97322.00;5080736;28;20228;-67
2022/03/26 08:08:10;;;;;;;22.20;7.47;;;;;;;10.91;53.86;97326.25;5080579;28;20195;-67
2022/03/26 08:10:37;;;;;;;19.83;6.63;;;;;;;10.93;52.68;97324.31;5080047;28;20205;-67
2022/03/26 08:13:04;;;;;;;23.20;6.53;;;;;;;11.08;50.95;97321.78;5079320;28;20203;-67
2022/03/26 08:15:30;;;;;;;20.53;8.03;;;;;;;11.13;51.93;97332.69;5080673;28;21006;-67
2022/03/26 08:17:58;;;;;;;19.97;7.07;;;;;;;11.04;50.78;97330.97;5080020;28;20199;-66
2022/03/26 08:20:27;;;;;;;18.10;8.03;;;;;;;11.27;50.62;97334.78;5079782;28;20319;-68
2022/03/26 08:22:53;;;;;;;21.00;7.73;;;;;;;11.26;50.89;97338.38;5079319;28;20680;-67
2022/03/26 08:28:05;;;;;;;27.13;6.83;;;;;;;11.92;49.96;97334.19;5079591;28;20300;-68
2022/03/26 08:30:32;;;;;;;15.00;5.27;;;;;;;11.83;50.13;97343.06;5079963;28;20318;-68
2022/03/26 08:33:00;;;;;;;22.73;7.07;;;;;;;12.03;49.95;97336.53;5078990;28;20451;-68
2022/03/26 08:35:28;;;;;;;21.00;7.00;;;;;;;12.15;50.30;97343.22;5079774;28;20742;-67
2022/03/26 08:37:54;;;;;;;19.83;7.57;;;;;;;12.15;50.60;97346.66;5080472;28;20200;-68
2022/03/26 08:40:21;;;;;;;30.13;8.80;;;;;;;12.14;48.41;97342.34;5079177;28;20224;-67
2022/03/26 08:42:47;;;;;;;22.10;7.53;;;;;;;12.37;50.15;97338.13;5078819;28;20203;-67
2022/03/26 08:45:14;;;;;;;19.43;7.27;;;;;;;12.52;49.77;97339.19;5079346;28;20227;-67
2022/03/26 08:47:40;;;;;;;28.23;8.73;;;;;;;12.47;47.29;97344.94;5080335;28;20199;-67
2022/03/26 08:50:09;;;;;;;22.30;7.37;;;;;;;12.81;50.38;97343.03;5079732;28;20192;-68
2022/03/26 08:52:37;;;;;;;26.93;7.53;;;;;;;12.87;47.85;97350.34;5078917;28;20208;-67
2022/03/26 08:55:04;;;;;;;24.20;7.53;;;;;;;12.71;47.28;97344.16;5079300;28;20227;-68
2022/03/26 08:57:31;;;;;;;22.60;7.80;;;;;;;12.54;46.61;97343.31;5079404;28;20204;-67
2022/03/26 08:59:57;;;;;;;35.40;8.67;;;;;;;12.39;47.46;97341.47;5079227;28;20220;-67
2022/03/26 09:02:23;;;;;;;25.90;8.63;;;;;;;12.64;48.73;97341.34;5078715;28;20274;-67
2022/03/26 09:04:50;;;;;;;26.33;8.43;;;;;;;12.79;47.90;97339.69;5079334;28;20711;-67
2022/03/26 09:07:16;;;;;;;24.60;7.17;;;;;;;12.66;48.90;97349.94;5079128;28;20646;-67
2022/03/26 09:09:44;;;;;;;22.60;6.60;;;;;;;12.87;48.76;97347.69;5079010;28;20196;-68
2022/03/26 09:12:11;;;;;;;25.50;7.70;;;;;;;12.92;48.94;97342.75;5077916;28;20957;-67
2022/03/26 09:14:37;;;;;;;26.52;8.63;;;;;;;13.20;47.28;97349.34;5077905;28;20594;-66
2022/03/26 09:17:04;;;;;;;24.92;7.90;;;;;;;13.27;48.09;97345.88;5078695;28;20192;-67
2022/03/26 09:19:31;;;;;;;29.92;8.45;;;;;;;13.14;48.47;97344.72;5078302;28;20255;-68
2022/03/26 09:21:58;;;;;;;20.90;7.07;;;;;;;13.38;47.05;97347.34;5078166;28;20206;-69
2022/03/26 09:24:24;;;;;;;23.80;6.93;;;;;;;13.68;47.42;97345.66;5077174;28;20253;-68
2022/03/26 09:26:52;;;;;;;29.13;8.68;;;;;;;13.98;47.08;97344.88;5078434;28;20206;-68
2022/03/26 09:29:18;;;;;;;29.05;8.45;;;;;;;14.06;44.56;97345.69;5078380;28;20227;-67
2022/03/26 09:31:45;;;;;;;24.13;7.75;;;;;;;14.02;44.61;97340.91;5078455;28;20200;-68
2022/03/26 09:34:11;;;;;;;22.05;8.35;;;;;;;14.26;45.10;97335.53;5078078;28;20200;-69
2022/03/26 09:36:38;;;;;;;29.80;8.55;;;;;;;14.39;44.78;97333.13;5078828;28;20869;-68
2022/03/26 09:39:05;;;;;;;30.63;8.63;;;;;;;14.46;44.27;97334.09;5077861;28;20675;-67
2022/03/26 09:41:32;;;;;;;23.63;8.38;;;;;;;14.22;43.82;97336.88;5077917;28;20216;-67
2022/03/26 09:44:00;;;;;;;26.10;8.75;;;;;;;14.96;44.16;97336.06;5078029;28;20204;-68
2022/03/26 09:46:28;;;;;;;19.58;7.05;;;;;;;14.73;43.73;97329.94;5078065;28;20204;-67
2022/03/26 09:48:54;;;;;;;30.45;9.52;;;;;;;14.82;44.81;97323.56;5078280;28;20200;-67
2022/03/26 09:51:24;;;;;;;28.98;8.73;;;;;;;14.70;43.20;97324.16;5078791;28;20204;-67
2022/03/26 09:53:51;;;;;;;34.30;11.52;;;;;;;15.20;44.01;97321.78;5077517;28;20200;-68
2022/03/26 09:56:18;;;;;;;18.55;7.35;;;;;;;15.18;41.99;97326.44;5077770;28;20226;-68
2022/03/26 09:58:45;;;;;;;29.90;8.65;;;;;;;15.43;42.10;97328.75;5078579;28;20199;-68
2022/03/26 10:01:13;;;;;;;25.67;9.10;;;;;;;15.59;43.83;97324.09;5077418;28;20268;-68
2022/03/26 10:03:41;;;;;;;31.95;9.98;;;;;;;15.35;43.50;97323.47;5076950;28;20693;-69
2022/03/26 10:06:08;;;;;;;27.45;8.23;;;;;;;15.68;40.60;97320.34;5077682;28;20224;-68
2022/03/26 10:08:36;;;;;;;23.30;8.15;;;;;;;15.61;39.66;97321.25;5077676;28;20200;-68
2022/03/26 10:11:02;;;;;;;23.75;8.52;;;;;;;15.61;41.78;97318.59;5078304;28;20200;-68
2022/03/26 10:13:38;;;;;;;28.42;8.52;;;;;;;16.11;41.31;97317.66;5077254;28;20199;-68
2022/03/26 10:16:06;;;;;;;26.90;9.15;;;;;;;16.01;41.83;97314.50;5077824;28;20215;-68
2022/03/26 10:18:39;;;;;;;27.80;8.98;;;;;;;16.29;40.10;97312.00;5077451;28;20298;-68
2022/03/26 10:21:08;;;;;;;26.02;9.27;;;;;;;16.36;40.83;97308.41;5077713;28;20220;-69
2022/03/26 10:23:35;;;;;;;36.38;10.23;;;;;;;16.36;39.58;97308.41;5076762;28;20235;-68
2022/03/26 10:26:09;;;;;;;33.08;10.07;;;;;;;16.31;40.69;97307.34;5077857;28;20223;-68
2022/03/26 10:28:36;;;;;;;25.40;8.80;;;;;;;16.57;41.33;97300.47;5077900;28;20837;-68
2022/03/26 10:34:08;;;;;;;31.77;9.30;;;;;;;16.71;40.03;97291.59;5076728;28;20992;-68
2022/03/26 10:36:36;;;;;;;27.42;9.48;;;;;;;16.54;39.09;97288.34;5077337;28;21228;-68
2022/03/26 10:39:03;;;;;;;33.42;9.93;;;;;;;16.72;38.51;97288.75;5077784;28;20199;-68
2022/03/26 10:41:32;;;;;;;31.85;9.10;;;;;;;16.96;38.65;97285.72;5076651;28;20227;-69
2022/03/26 10:44:09;;;;;;;26.50;9.00;;;;;;;17.27;36.03;97280.88;5076282;28;20204;-68
2022/03/26 10:46:47;;;;;;;26.65;8.88;;;;;;;17.37;37.59;97282.19;5077948;28;20203;-68
2022/03/26 10:49:25;;;;;;;28.67;9.10;;;;;;;17.58;36.19;97286.66;5077312;28;20200;-68
2022/03/26 10:51:53;;;;;;;28.05;9.45;;;;;;;17.19;37.17;97284.47;5077163;28;20196;-68
2022/03/26 10:54:20;;;;;;;30.48;9.82;;;;;;;17.42;39.44;97278.97;5076544;28;21226;-68
2022/03/26 10:56:47;;;;;;;32.03;9.63;;;;;;;17.75;36.30;97283.50;5077340;28;20200;-69
2022/03/26 10:59:13;;;;;;;34.30;9.57;;;;;;;17.38;36.11;97286.50;5076490;28;20215;-68
2022/03/26 11:01:40;;;;;;;25.95;8.68;;;;;;;17.55;35.54;97271.88;5077075;28;20224;-68
2022/03/26 11:04:06;;;;;;;32.53;11.18;;;;;;;17.24;36.56;97274.09;5076578;28;20203;-69
2022/03/26 11:06:39;;;;;;;32.35;9.90;;;;;;;18.06;36.15;97274.03;5076714;28;20641;-68
2022/03/26 11:09:07;;;;;;;32.92;10.40;;;;;;;18.04;35.69;97277.94;5077479;28;20291;-68
2022/03/26 11:11:35;;;;;;;33.25;10.00;;;;;;;18.10;35.46;97269.94;5076908;28;20207;-69
2022/03/26 11:14:04;;;;;;;25.67;9.50;;;;;;;18.35;34.68;97263.94;5075667;28;21206;-68
2022/03/26 11:16:42;;;;;;;30.73;10.32;;;;;;;18.93;35.76;97265.91;5076641;28;20195;-67
2022/03/26 11:19:23;;;;;;;25.40;9.38;;;;;;;18.95;34.69;97271.84;5077755;28;20252;-68
2022/03/26 11:22:23;;;;;;;33.00;9.80;;;;;;;18.82;33.27;97263.84;5076088;28;20274;-69
2022/03/26 11:25:25;;;;;;;29.48;9.98;;;;;;;18.95;33.19;97259.34;5076679;28;20236;-68
2022/03/26 11:28:08;;;;;;;30.73;10.35;;;;;;;18.95;34.38;97253.16;5051841;28;20199;-68
2022/03/26 11:30:45;;;;;;;28.52;10.57;;;;;;;19.28;32.89;97259.38;5076410;28;20662;-68
2022/03/26 11:33:13;;;;;;;22.92;8.85;;;;;;;18.83;34.44;97251.31;5076076;28;20199;-68
2022/03/26 11:35:56;;;;;;;33.17;10.13;;;;;;;19.21;32.64;97245.22;5076826;28;20227;-68
2022/03/26 11:38:27;;;;;;;30.92;9.38;;;;;;;19.25;32.70;97239.22;5076186;28;20303;-68